sensor_id;sensor_type;location;lat;lon;timestamp;P1;durP1;ratioP1;P2;durP2;ratioP2
9461;SDS011;4769;42.660;23.262;2023-09-07T00:00:52;9.05;;;8.00;;
9461;SDS011;4769;42.660;23.262;2023-09-07T00:03:18;9.10;;;7.55;;
9461;SDS011;4769;42.660;23.262;2023-09-07T00:05:44;9.68;;;8.45;;
9461;SDS011;4769;42.660;23.262;2023-09-07T00:08:12;9.13;;;8.20;;
9461;SDS011;4769;42.660;23.262;2023-09-07T00:10:38;10.15;;;8.68;;
9461;SDS011;4769;42.660;23.262;2023-09-07T00:13:04;10.80;;;9.07;;
9461;SDS011;4769;42.660;23.262;2023-09-07T00:15:30;10.63;;;8.35;;
9461;SDS011;4769;42.660;23.262;2023-09-07T00:18:03;8.85;;;8.02;;
9461;SDS011;4769;42.660;23.262;2023-09-07T00:20:29;10.55;;;8.70;;
9461;SDS011;4769;42.660;23.262;2023-09-07T00:22:55;11.25;;;9.48;;
9461;SDS011;4769;42.660;23.262;2023-09-07T00:25:23;11.43;;;8.77;;
9461;SDS011;4769;42.660;23.262;2023-09-07T00:27:49;11.15;;;9.20;;
9461;SDS011;4769;42.660;23.262;2023-09-07T00:30:15;12.40;;;8.68;;
9461;SDS011;4769;42.660;23.262;2023-09-07T00:32:40;9.55;;;8.15;;
9461;SDS011;4769;42.660;23.262;2023-09-07T00:35:06;10.05;;;8.88;;
9461;SDS011;4769;42.660;23.262;2023-09-07T00:37:33;10.20;;;9.20;;
9461;SDS011;4769;42.660;23.262;2023-09-07T00:39:59;10.70;;;9.50;;
9461;SDS011;4769;42.660;23.262;2023-09-07T00:42:27;12.65;;;10.48;;
9461;SDS011;4769;42.660;23.262;2023-09-07T00:44:53;13.48;;;12.15;;
9461;SDS011;4769;42.660;23.262;2023-09-07T00:47:19;13.68;;;12.27;;
9461;SDS011;4769;42.660;23.262;2023-09-07T00:49:45;14.02;;;12.82;;
9461;SDS011;4769;42.660;23.262;2023-09-07T00:52:11;14.80;;;13.20;;
9461;SDS011;4769;42.660;23.262;2023-09-07T00:54:37;14.13;;;12.88;;
9461;SDS011;4769;42.660;23.262;2023-09-07T00:57:04;14.10;;;12.60;;
9461;SDS011;4769;42.660;23.262;2023-09-07T00:59:33;13.65;;;12.35;;
9461;SDS011;4769;42.660;23.262;2023-09-07T01:01:59;14.27;;;12.75;;
9461;SDS011;4769;42.660;23.262;2023-09-07T01:04:25;15.60;;;14.10;;
9461;SDS011;4769;42.660;23.262;2023-09-07T01:06:51;15.70;;;14.15;;
9461;SDS011;4769;42.660;23.262;2023-09-07T01:09:21;22.88;;;15.00;;
9461;SDS011;4769;42.660;23.262;2023-09-07T01:11:50;16.38;;;14.68;;
9461;SDS011;4769;42.660;23.262;2023-09-07T01:14:15;16.40;;;14.70;;
9461;SDS011;4769;42.660;23.262;2023-09-07T01:16:44;18.23;;;15.55;;
9461;SDS011;4769;42.660;23.262;2023-09-07T01:19:10;17.08;;;15.57;;
9461;SDS011;4769;42.660;23.262;2023-09-07T01:21:39;17.67;;;15.88;;
9461;SDS011;4769;42.660;23.262;2023-09-07T01:24:06;17.13;;;15.52;;
9461;SDS011;4769;42.660;23.262;2023-09-07T01:26:33;17.27;;;15.68;;
9461;SDS011;4769;42.660;23.262;2023-09-07T01:28:59;19.95;;;15.85;;
9461;SDS011;4769;42.660;23.262;2023-09-07T01:31:26;18.20;;;16.30;;
9461;SDS011;4769;42.660;23.262;2023-09-07T01:33:51;18.33;;;16.65;;
9461;SDS011;4769;42.660;23.262;2023-09-07T01:36:17;18.67;;;16.15;;
9461;SDS011;4769;42.660;23.262;2023-09-07T01:38:46;17.98;;;15.75;;
9461;SDS011;4769;42.660;23.262;2023-09-07T01:41:11;17.63;;;16.02;;
9461;SDS011;4769;42.660;23.262;2023-09-07T01:43:37;17.33;;;15.75;;
9461;SDS011;4769;42.660;23.262;2023-09-07T01:46:03;17.45;;;15.95;;
9461;SDS011;4769;42.660;23.262;2023-09-07T01:48:29;19.00;;;17.20;;
9461;SDS011;4769;42.660;23.262;2023-09-07T01:50:55;19.45;;;17.48;;
9461;SDS011;4769;42.660;23.262;2023-09-07T01:53:20;19.58;;;17.67;;
9461;SDS011;4769;42.660;23.262;2023-09-07T01:55:49;19.77;;;18.00;;
9461;SDS011;4769;42.660;23.262;2023-09-07T01:58:14;20.40;;;18.33;;
9461;SDS011;4769;42.660;23.262;2023-09-07T02:00:40;20.00;;;17.88;;
9461;SDS011;4769;42.660;23.262;2023-09-07T02:03:06;20.65;;;17.38;;
9461;SDS011;4769;42.660;23.262;2023-09-07T02:05:32;18.40;;;16.70;;
9461;SDS011;4769;42.660;23.262;2023-09-07T02:07:58;18.15;;;16.40;;
9461;SDS011;4769;42.660;23.262;2023-09-07T02:10:23;17.55;;;15.82;;
9461;SDS011;4769;42.660;23.262;2023-09-07T02:12:52;19.85;;;16.92;;
9461;SDS011;4769;42.660;23.262;2023-09-07T02:15:18;18.60;;;16.90;;
9461;SDS011;4769;42.660;23.262;2023-09-07T02:17:44;17.95;;;16.35;;
9461;SDS011;4769;42.660;23.262;2023-09-07T02:20:10;18.80;;;16.75;;
9461;SDS011;4769;42.660;23.262;2023-09-07T02:22:36;20.63;;;17.15;;
9461;SDS011;4769;42.660;23.262;2023-09-07T02:25:02;18.33;;;16.08;;
9461;SDS011;4769;42.660;23.262;2023-09-07T02:27:29;17.98;;;16.33;;
9461;SDS011;4769;42.660;23.262;2023-09-07T02:29:57;18.65;;;16.67;;
9461;SDS011;4769;42.660;23.262;2023-09-07T02:32:23;18.42;;;16.73;;
9461;SDS011;4769;42.660;23.262;2023-09-07T02:34:49;17.73;;;16.00;;
9461;SDS011;4769;42.660;23.262;2023-09-07T02:37:14;16.88;;;15.40;;
9461;SDS011;4769;42.660;23.262;2023-09-07T02:39:40;17.98;;;16.25;;
9461;SDS011;4769;42.660;23.262;2023-09-07T02:42:06;18.27;;;16.42;;
9461;SDS011;4769;42.660;23.262;2023-09-07T02:44:32;18.05;;;16.45;;
9461;SDS011;4769;42.660;23.262;2023-09-07T02:47:01;18.05;;;15.88;;
9461;SDS011;4769;42.660;23.262;2023-09-07T02:49:26;17.83;;;16.13;;
9461;SDS011;4769;42.660;23.262;2023-09-07T02:51:52;18.20;;;16.23;;
9461;SDS011;4769;42.660;23.262;2023-09-07T02:54:18;17.73;;;15.95;;
9461;SDS011;4769;42.660;23.262;2023-09-07T02:56:44;20.80;;;16.33;;
9461;SDS011;4769;42.660;23.262;2023-09-07T02:59:10;17.67;;;15.90;;
9461;SDS011;4769;42.660;23.262;2023-09-07T03:01:35;17.73;;;16.13;;
9461;SDS011;4769;42.660;23.262;2023-09-07T03:04:06;18.17;;;16.30;;
9461;SDS011;4769;42.660;23.262;2023-09-07T03:06:32;18.35;;;16.52;;
9461;SDS011;4769;42.660;23.262;2023-09-07T03:08:57;19.08;;;17.38;;
9461;SDS011;4769;42.660;23.262;2023-09-07T03:11:23;19.08;;;17.15;;
9461;SDS011;4769;42.660;23.262;2023-09-07T03:13:49;18.90;;;17.08;;
9461;SDS011;4769;42.660;23.262;2023-09-07T03:16:15;19.60;;;17.73;;
9461;SDS011;4769;42.660;23.262;2023-09-07T03:18:41;19.33;;;17.60;;
9461;SDS011;4769;42.660;23.262;2023-09-07T03:21:10;20.15;;;18.27;;
9461;SDS011;4769;42.660;23.262;2023-09-07T03:23:36;18.33;;;16.52;;
9461;SDS011;4769;42.660;23.262;2023-09-07T03:26:01;17.95;;;16.15;;
9461;SDS011;4769;42.660;23.262;2023-09-07T03:28:27;18.30;;;16.35;;
9461;SDS011;4769;42.660;23.262;2023-09-07T03:30:53;18.38;;;16.30;;
9461;SDS011;4769;42.660;23.262;2023-09-07T03:33:19;18.15;;;16.23;;
9461;SDS011;4769;42.660;23.262;2023-09-07T03:35:45;19.02;;;17.25;;
9461;SDS011;4769;42.660;23.262;2023-09-07T03:38:13;17.55;;;15.77;;
9461;SDS011;4769;42.660;23.262;2023-09-07T03:40:39;18.52;;;16.67;;
9461;SDS011;4769;42.660;23.262;2023-09-07T03:43:05;19.60;;;17.73;;
9461;SDS011;4769;42.660;23.262;2023-09-07T03:45:30;20.85;;;18.85;;
9461;SDS011;4769;42.660;23.262;2023-09-07T03:47:56;21.75;;;19.45;;
9461;SDS011;4769;42.660;23.262;2023-09-07T03:50:22;22.17;;;19.75;;
9461;SDS011;4769;42.660;23.262;2023-09-07T03:52:48;21.02;;;18.70;;
9461;SDS011;4769;42.660;23.262;2023-09-07T03:55:16;22.88;;;20.35;;
9461;SDS011;4769;42.660;23.262;2023-09-07T03:57:42;22.90;;;20.67;;
9461;SDS011;4769;42.660;23.262;2023-09-07T04:00:08;22.83;;;20.52;;
9461;SDS011;4769;42.660;23.262;2023-09-07T04:02:35;22.02;;;20.00;;
9461;SDS011;4769;42.660;23.262;2023-09-07T04:05:01;21.35;;;19.15;;
9461;SDS011;4769;42.660;23.262;2023-09-07T04:07:26;22.27;;;19.95;;
9461;SDS011;4769;42.660;23.262;2023-09-07T04:09:53;21.17;;;19.23;;
9461;SDS011;4769;42.660;23.262;2023-09-07T04:12:21;21.98;;;19.80;;
9461;SDS011;4769;42.660;23.262;2023-09-07T04:14:47;23.42;;;21.00;;
9461;SDS011;4769;42.660;23.262;2023-09-07T04:17:13;24.92;;;22.40;;
9461;SDS011;4769;42.660;23.262;2023-09-07T04:19:38;22.52;;;19.85;;
9461;SDS011;4769;42.660;23.262;2023-09-07T04:22:04;21.70;;;19.60;;
9461;SDS011;4769;42.660;23.262;2023-09-07T04:24:30;20.38;;;18.55;;
9461;SDS011;4769;42.660;23.262;2023-09-07T04:26:58;20.23;;;17.90;;
9461;SDS011;4769;42.660;23.262;2023-09-07T04:29:26;23.70;;;18.67;;
9461;SDS011;4769;42.660;23.262;2023-09-07T04:31:52;17.73;;;16.23;;
9461;SDS011;4769;42.660;23.262;2023-09-07T04:34:18;18.85;;;16.90;;
9461;SDS011;4769;42.660;23.262;2023-09-07T04:36:44;18.70;;;16.90;;
9461;SDS011;4769;42.660;23.262;2023-09-07T04:39:10;19.05;;;17.13;;
9461;SDS011;4769;42.660;23.262;2023-09-07T04:41:36;19.88;;;17.83;;
9461;SDS011;4769;42.660;23.262;2023-09-07T04:44:01;18.92;;;17.13;;
9461;SDS011;4769;42.660;23.262;2023-09-07T04:46:30;19.63;;;17.92;;
9461;SDS011;4769;42.660;23.262;2023-09-07T04:48:56;19.08;;;17.20;;
9461;SDS011;4769;42.660;23.262;2023-09-07T04:51:21;20.08;;;18.10;;
9461;SDS011;4769;42.660;23.262;2023-09-07T04:53:47;19.63;;;17.85;;
9461;SDS011;4769;42.660;23.262;2023-09-07T04:56:13;19.98;;;17.95;;
9461;SDS011;4769;42.660;23.262;2023-09-07T04:58:38;18.48;;;16.77;;
9461;SDS011;4769;42.660;23.262;2023-09-07T05:01:04;19.85;;;16.60;;
9461;SDS011;4769;42.660;23.262;2023-09-07T05:03:34;19.42;;;17.60;;
9461;SDS011;4769;42.660;23.262;2023-09-07T05:06:00;18.23;;;16.48;;
9461;SDS011;4769;42.660;23.262;2023-09-07T05:08:26;20.88;;;17.65;;
9461;SDS011;4769;42.660;23.262;2023-09-07T05:10:54;21.77;;;16.08;;
9461;SDS011;4769;42.660;23.262;2023-09-07T05:13:20;20.67;;;16.77;;
9461;SDS011;4769;42.660;23.262;2023-09-07T05:15:47;16.83;;;14.43;;
9461;SDS011;4769;42.660;23.262;2023-09-07T05:18:13;17.45;;;14.35;;
9461;SDS011;4769;42.660;23.262;2023-09-07T05:20:41;17.30;;;15.52;;
9461;SDS011;4769;42.660;23.262;2023-09-07T05:23:07;22.17;;;15.40;;
9461;SDS011;4769;42.660;23.262;2023-09-07T05:25:32;17.30;;;14.07;;
9461;SDS011;4769;42.660;23.262;2023-09-07T05:27:58;17.20;;;13.15;;
9461;SDS011;4769;42.660;23.262;2023-09-07T05:30:24;18.90;;;13.90;;
9461;SDS011;4769;42.660;23.262;2023-09-07T05:32:50;16.05;;;14.40;;
9461;SDS011;4769;42.660;23.262;2023-09-07T05:35:15;15.23;;;13.63;;
9461;SDS011;4769;42.660;23.262;2023-09-07T05:37:44;19.80;;;14.82;;
9461;SDS011;4769;42.660;23.262;2023-09-07T05:40:10;16.67;;;14.68;;
9461;SDS011;4769;42.660;23.262;2023-09-07T05:42:37;16.55;;;14.80;;
9461;SDS011;4769;42.660;23.262;2023-09-07T05:45:03;14.52;;;13.02;;
9461;SDS011;4769;42.660;23.262;2023-09-07T05:47:30;15.18;;;13.63;;
9461;SDS011;4769;42.660;23.262;2023-09-07T05:49:56;16.05;;;14.00;;
9461;SDS011;4769;42.660;23.262;2023-09-07T05:52:21;22.52;;;14.38;;
9461;SDS011;4769;42.660;23.262;2023-09-07T05:54:50;16.80;;;15.13;;
9461;SDS011;4769;42.660;23.262;2023-09-07T05:57:15;19.23;;;15.10;;
9461;SDS011;4769;42.660;23.262;2023-09-07T05:59:41;16.60;;;14.68;;
9461;SDS011;4769;42.660;23.262;2023-09-07T06:02:07;22.70;;;15.90;;
9461;SDS011;4769;42.660;23.262;2023-09-07T06:04:33;17.83;;;15.45;;
9461;SDS011;4769;42.660;23.262;2023-09-07T06:06:58;27.65;;;15.32;;
9461;SDS011;4769;42.660;23.262;2023-09-07T06:09:24;21.30;;;14.95;;
9461;SDS011;4769;42.660;23.262;2023-09-07T06:11:52;19.40;;;15.68;;
9461;SDS011;4769;42.660;23.262;2023-09-07T06:14:18;22.98;;;14.30;;
9461;SDS011;4769;42.660;23.262;2023-09-07T06:16:44;21.45;;;14.38;;
9461;SDS011;4769;42.660;23.262;2023-09-07T06:19:10;17.02;;;13.60;;
9461;SDS011;4769;42.660;23.262;2023-09-07T06:21:35;16.80;;;13.45;;
9461;SDS011;4769;42.660;23.262;2023-09-07T06:24:01;13.82;;;12.45;;
9461;SDS011;4769;42.660;23.262;2023-09-07T06:26:27;13.30;;;12.10;;
9461;SDS011;4769;42.660;23.262;2023-09-07T06:28:55;13.48;;;11.80;;
9461;SDS011;4769;42.660;23.262;2023-09-07T06:31:21;12.85;;;11.48;;
9461;SDS011;4769;42.660;23.262;2023-09-07T06:33:47;13.10;;;10.30;;
9461;SDS011;4769;42.660;23.262;2023-09-07T06:36:12;14.57;;;10.43;;
9461;SDS011;4769;42.660;23.262;2023-09-07T06:38:38;12.15;;;9.95;;
9461;SDS011;4769;42.660;23.262;2023-09-07T06:41:04;12.68;;;10.50;;
9461;SDS011;4769;42.660;23.262;2023-09-07T06:43:29;15.32;;;10.15;;
9461;SDS011;4769;42.660;23.262;2023-09-07T06:46:01;10.73;;;9.73;;
9461;SDS011;4769;42.660;23.262;2023-09-07T06:48:27;14.45;;;10.52;;
9461;SDS011;4769;42.660;23.262;2023-09-07T06:50:53;11.88;;;10.05;;
9461;SDS011;4769;42.660;23.262;2023-09-07T06:53:19;12.32;;;11.15;;
9461;SDS011;4769;42.660;23.262;2023-09-07T06:55:44;12.18;;;10.73;;
9461;SDS011;4769;42.660;23.262;2023-09-07T06:58:10;10.70;;;8.60;;
9461;SDS011;4769;42.660;23.262;2023-09-07T07:00:36;13.82;;;9.77;;
9461;SDS011;4769;42.660;23.262;2023-09-07T07:03:04;12.02;;;10.20;;
9461;SDS011;4769;42.660;23.262;2023-09-07T07:05:30;10.02;;;8.52;;
9461;SDS011;4769;42.660;23.262;2023-09-07T07:07:56;10.05;;;8.48;;
9461;SDS011;4769;42.660;23.262;2023-09-07T07:10:21;9.95;;;8.05;;
9461;SDS011;4769;42.660;23.262;2023-09-07T07:12:47;12.70;;;9.05;;
9461;SDS011;4769;42.660;23.262;2023-09-07T07:15:13;13.73;;;9.23;;
9461;SDS011;4769;42.660;23.262;2023-09-07T07:17:39;10.57;;;8.43;;
9461;SDS011;4769;42.660;23.262;2023-09-07T07:20:08;8.95;;;7.97;;
9461;SDS011;4769;42.660;23.262;2023-09-07T07:22:34;10.60;;;8.38;;
9461;SDS011;4769;42.660;23.262;2023-09-07T07:25:00;13.57;;;8.27;;
9461;SDS011;4769;42.660;23.262;2023-09-07T07:27:25;8.10;;;7.40;;
9461;SDS011;4769;42.660;23.262;2023-09-07T07:29:51;11.80;;;8.10;;
9461;SDS011;4769;42.660;23.262;2023-09-07T07:32:17;12.30;;;8.70;;
9461;SDS011;4769;42.660;23.262;2023-09-07T07:34:43;10.23;;;7.82;;
9461;SDS011;4769;42.660;23.262;2023-09-07T07:37:11;12.88;;;8.65;;
9461;SDS011;4769;42.660;23.262;2023-09-07T07:39:36;10.10;;;9.10;;
9461;SDS011;4769;42.660;23.262;2023-09-07T07:42:02;10.90;;;8.80;;
9461;SDS011;4769;42.660;23.262;2023-09-07T07:44:28;8.50;;;7.70;;
9461;SDS011;4769;42.660;23.262;2023-09-07T07:46:54;10.40;;;9.18;;
9461;SDS011;4769;42.660;23.262;2023-09-07T07:49:20;10.23;;;8.15;;
9461;SDS011;4769;42.660;23.262;2023-09-07T07:51:45;12.88;;;9.27;;
9461;SDS011;4769;42.660;23.262;2023-09-07T07:54:14;12.85;;;10.02;;
9461;SDS011;4769;42.660;23.262;2023-09-07T07:56:39;10.93;;;9.77;;
9461;SDS011;4769;42.660;23.262;2023-09-07T07:59:05;9.60;;;8.70;;
9461;SDS011;4769;42.660;23.262;2023-09-07T08:01:31;11.93;;;9.30;;
9461;SDS011;4769;42.660;23.262;2023-09-07T08:03:56;10.80;;;9.15;;
9461;SDS011;4769;42.660;23.262;2023-09-07T08:06:22;10.73;;;9.00;;
9461;SDS011;4769;42.660;23.262;2023-09-07T08:08:48;11.23;;;8.98;;
9461;SDS011;4769;42.660;23.262;2023-09-07T08:11:16;9.98;;;8.98;;
9461;SDS011;4769;42.660;23.262;2023-09-07T08:13:42;10.77;;;9.27;;
9461;SDS011;4769;42.660;23.262;2023-09-07T08:16:07;9.52;;;8.63;;
9461;SDS011;4769;42.660;23.262;2023-09-07T08:18:33;9.50;;;7.82;;
9461;SDS011;4769;42.660;23.262;2023-09-07T08:20:59;11.40;;;8.27;;
9461;SDS011;4769;42.660;23.262;2023-09-07T08:23:25;8.63;;;7.70;;
9461;SDS011;4769;42.660;23.262;2023-09-07T08:25:51;9.88;;;8.70;;
9461;SDS011;4769;42.660;23.262;2023-09-07T08:28:20;8.25;;;7.55;;
9461;SDS011;4769;42.660;23.262;2023-09-07T08:30:46;10.90;;;8.40;;
9461;SDS011;4769;42.660;23.262;2023-09-07T08:33:13;8.77;;;7.85;;
9461;SDS011;4769;42.660;23.262;2023-09-07T08:35:39;9.90;;;7.50;;
9461;SDS011;4769;42.660;23.262;2023-09-07T08:38:04;9.43;;;8.48;;
9461;SDS011;4769;42.660;23.262;2023-09-07T08:40:30;13.60;;;8.52;;
9461;SDS011;4769;42.660;23.262;2023-09-07T08:42:56;8.98;;;7.68;;
9461;SDS011;4769;42.660;23.262;2023-09-07T08:45:25;10.23;;;8.00;;
9461;SDS011;4769;42.660;23.262;2023-09-07T08:47:54;15.02;;;8.40;;
9461;SDS011;4769;42.660;23.262;2023-09-07T08:50:21;10.35;;;8.30;;
9461;SDS011;4769;42.660;23.262;2023-09-07T08:52:48;17.48;;;8.55;;
9461;SDS011;4769;42.660;23.262;2023-09-07T08:55:17;7.95;;;7.10;;
9461;SDS011;4769;42.660;23.262;2023-09-07T08:57:43;9.73;;;6.78;;
9461;SDS011;4769;42.660;23.262;2023-09-07T09:00:09;7.53;;;6.82;;
9461;SDS011;4769;42.660;23.262;2023-09-07T09:02:38;10.20;;;7.65;;
9461;SDS011;4769;42.660;23.262;2023-09-07T09:05:04;10.68;;;7.68;;
9461;SDS011;4769;42.660;23.262;2023-09-07T09:07:32;15.73;;;8.05;;
9461;SDS011;4769;42.660;23.262;2023-09-07T09:10:05;8.85;;;8.02;;
9461;SDS011;4769;42.660;23.262;2023-09-07T09:12:31;9.60;;;6.88;;
9461;SDS011;4769;42.660;23.262;2023-09-07T09:14:58;10.52;;;8.70;;
9461;SDS011;4769;42.660;23.262;2023-09-07T09:17:24;9.77;;;7.40;;
9461;SDS011;4769;42.660;23.262;2023-09-07T09:19:53;17.00;;;7.60;;
9461;SDS011;4769;42.660;23.262;2023-09-07T09:22:18;8.68;;;7.10;;
9461;SDS011;4769;42.660;23.262;2023-09-07T09:24:44;8.02;;;6.95;;
9461;SDS011;4769;42.660;23.262;2023-09-07T09:27:12;10.27;;;6.88;;
9461;SDS011;4769;42.660;23.262;2023-09-07T09:29:38;8.85;;;6.13;;
9461;SDS011;4769;42.660;23.262;2023-09-07T09:32:05;8.98;;;7.28;;
9461;SDS011;4769;42.660;23.262;2023-09-07T09:34:33;7.55;;;6.75;;
9461;SDS011;4769;42.660;23.262;2023-09-07T09:37:02;8.30;;;6.93;;
9461;SDS011;4769;42.660;23.262;2023-09-07T09:39:29;12.80;;;8.32;;
9461;SDS011;4769;42.660;23.262;2023-09-07T09:41:55;12.63;;;7.43;;
9461;SDS011;4769;42.660;23.262;2023-09-07T09:44:21;11.55;;;8.80;;
9461;SDS011;4769;42.660;23.262;2023-09-07T09:46:48;16.77;;;9.27;;
9461;SDS011;4769;42.660;23.262;2023-09-07T09:49:16;11.23;;;9.20;;
9461;SDS011;4769;42.660;23.262;2023-09-07T09:51:42;11.07;;;8.38;;
9461;SDS011;4769;42.660;23.262;2023-09-07T09:54:13;14.20;;;7.05;;
9461;SDS011;4769;42.660;23.262;2023-09-07T09:56:39;10.38;;;7.82;;
9461;SDS011;4769;42.660;23.262;2023-09-07T09:59:04;9.50;;;6.85;;
9461;SDS011;4769;42.660;23.262;2023-09-07T10:01:30;6.70;;;6.10;;
9461;SDS011;4769;42.660;23.262;2023-09-07T10:04:06;12.40;;;7.22;;
9461;SDS011;4769;42.660;23.262;2023-09-07T10:06:34;7.25;;;6.47;;
9461;SDS011;4769;42.660;23.262;2023-09-07T10:09:01;10.95;;;6.90;;
9461;SDS011;4769;42.660;23.262;2023-09-07T10:11:35;13.55;;;6.88;;
9461;SDS011;4769;42.660;23.262;2023-09-07T10:14:02;8.98;;;6.10;;
9461;SDS011;4769;42.660;23.262;2023-09-07T10:16:28;7.85;;;6.28;;
9461;SDS011;4769;42.660;23.262;2023-09-07T10:19:13;9.77;;;6.05;;
9461;SDS011;4769;42.660;23.262;2023-09-07T10:21:39;7.10;;;6.20;;
9461;SDS011;4769;42.660;23.262;2023-09-07T10:24:05;9.10;;;5.95;;
9461;SDS011;4769;42.660;23.262;2023-09-07T10:26:34;8.35;;;6.05;;
9461;SDS011;4769;42.660;23.262;2023-09-07T10:29:00;6.82;;;6.07;;
9461;SDS011;4769;42.660;23.262;2023-09-07T10:31:26;9.63;;;5.70;;
9461;SDS011;4769;42.660;23.262;2023-09-07T10:33:52;9.13;;;6.18;;
9461;SDS011;4769;42.660;23.262;2023-09-07T10:36:21;7.68;;;6.03;;
9461;SDS011;4769;42.660;23.262;2023-09-07T10:38:48;9.68;;;6.40;;
9461;SDS011;4769;42.660;23.262;2023-09-07T10:41:14;10.73;;;6.05;;
9461;SDS011;4769;42.660;23.262;2023-09-07T10:43:49;7.28;;;6.07;;
9461;SDS011;4769;42.660;23.262;2023-09-07T10:46:15;8.80;;;6.03;;
9461;SDS011;4769;42.660;23.262;2023-09-07T10:48:43;7.25;;;5.85;;
9461;SDS011;4769;42.660;23.262;2023-09-07T10:51:09;8.75;;;6.30;;
9461;SDS011;4769;42.660;23.262;2023-09-07T10:53:35;7.93;;;5.97;;
9461;SDS011;4769;42.660;23.262;2023-09-07T10:56:02;6.82;;;6.05;;
9461;SDS011;4769;42.660;23.262;2023-09-07T10:58:30;6.72;;;5.80;;
9461;SDS011;4769;42.660;23.262;2023-09-07T11:00:59;7.05;;;6.07;;
9461;SDS011;4769;42.660;23.262;2023-09-07T11:03:26;6.20;;;5.60;;
9461;SDS011;4769;42.660;23.262;2023-09-07T11:05:53;7.75;;;6.00;;
9461;SDS011;4769;42.660;23.262;2023-09-07T11:08:22;6.45;;;5.85;;
9461;SDS011;4769;42.660;23.262;2023-09-07T11:10:49;8.77;;;6.47;;
9461;SDS011;4769;42.660;23.262;2023-09-07T11:13:15;10.57;;;6.35;;
9461;SDS011;4769;42.660;23.262;2023-09-07T11:15:41;7.25;;;5.90;;
9461;SDS011;4769;42.660;23.262;2023-09-07T11:18:10;10.90;;;6.65;;
9461;SDS011;4769;42.660;23.262;2023-09-07T11:20:36;8.38;;;6.70;;
9461;SDS011;4769;42.660;23.262;2023-09-07T11:23:02;6.30;;;5.70;;
9461;SDS011;4769;42.660;23.262;2023-09-07T11:25:33;9.55;;;6.25;;
9461;SDS011;4769;42.660;23.262;2023-09-07T11:27:59;10.73;;;6.65;;
9461;SDS011;4769;42.660;23.262;2023-09-07T11:30:26;7.45;;;6.68;;
9461;SDS011;4769;42.660;23.262;2023-09-07T11:32:59;7.85;;;6.40;;
9461;SDS011;4769;42.660;23.262;2023-09-07T11:35:28;10.25;;;6.72;;
9461;SDS011;4769;42.660;23.262;2023-09-07T11:37:54;10.25;;;6.30;;
9461;SDS011;4769;42.660;23.262;2023-09-07T11:40:20;6.85;;;5.88;;
9461;SDS011;4769;42.660;23.262;2023-09-07T11:42:46;11.77;;;5.70;;
9461;SDS011;4769;42.660;23.262;2023-09-07T11:45:11;9.18;;;5.75;;
9461;SDS011;4769;42.660;23.262;2023-09-07T11:47:37;6.70;;;5.50;;
9461;SDS011;4769;42.660;23.262;2023-09-07T11:50:03;9.07;;;5.90;;
9461;SDS011;4769;42.660;23.262;2023-09-07T11:52:32;6.43;;;5.30;;
9461;SDS011;4769;42.660;23.262;2023-09-07T11:54:58;9.23;;;5.68;;
9461;SDS011;4769;42.660;23.262;2023-09-07T11:57:24;5.90;;;5.15;;
9461;SDS011;4769;42.660;23.262;2023-09-07T11:59:49;6.18;;;4.90;;
9461;SDS011;4769;42.660;23.262;2023-09-07T12:02:15;7.65;;;5.65;;
9461;SDS011;4769;42.660;23.262;2023-09-07T12:04:41;11.00;;;5.40;;
9461;SDS011;4769;42.660;23.262;2023-09-07T12:07:06;7.28;;;5.85;;
9461;SDS011;4769;42.660;23.262;2023-09-07T12:09:35;8.48;;;5.75;;
9461;SDS011;4769;42.660;23.262;2023-09-07T12:12:01;7.25;;;5.45;;
9461;SDS011;4769;42.660;23.262;2023-09-07T12:14:28;7.82;;;5.00;;
9461;SDS011;4769;42.660;23.262;2023-09-07T12:16:53;7.85;;;5.38;;
9461;SDS011;4769;42.660;23.262;2023-09-07T12:19:19;8.18;;;5.57;;
9461;SDS011;4769;42.660;23.262;2023-09-07T12:21:45;6.30;;;5.68;;
9461;SDS011;4769;42.660;23.262;2023-09-07T12:24:11;6.90;;;5.15;;
9461;SDS011;4769;42.660;23.262;2023-09-07T12:26:39;7.05;;;5.20;;
9461;SDS011;4769;42.660;23.262;2023-09-07T12:29:05;7.25;;;5.32;;
9461;SDS011;4769;42.660;23.262;2023-09-07T12:31:30;7.75;;;5.30;;
9461;SDS011;4769;42.660;23.262;2023-09-07T12:33:56;6.10;;;5.45;;
9461;SDS011;4769;42.660;23.262;2023-09-07T12:36:22;10.48;;;5.63;;
9461;SDS011;4769;42.660;23.262;2023-09-07T12:38:48;5.82;;;5.22;;
9461;SDS011;4769;42.660;23.262;2023-09-07T12:41:14;5.78;;;5.20;;
9461;SDS011;4769;42.660;23.262;2023-09-07T12:43:42;8.35;;;5.10;;
9461;SDS011;4769;42.660;23.262;2023-09-07T12:46:08;6.05;;;5.28;;
9461;SDS011;4769;42.660;23.262;2023-09-07T12:48:34;7.47;;;5.22;;
9461;SDS011;4769;42.660;23.262;2023-09-07T12:51:01;9.68;;;5.38;;
9461;SDS011;4769;42.660;23.262;2023-09-07T12:53:26;7.38;;;4.90;;
9461;SDS011;4769;42.660;23.262;2023-09-07T12:55:52;6.78;;;5.10;;
9461;SDS011;4769;42.660;23.262;2023-09-07T12:58:19;8.50;;;5.45;;
9461;SDS011;4769;42.660;23.262;2023-09-07T13:00:47;10.80;;;5.72;;
9461;SDS011;4769;42.660;23.262;2023-09-07T13:03:13;7.38;;;5.05;;
9461;SDS011;4769;42.660;23.262;2023-09-07T13:05:39;5.47;;;4.85;;
9461;SDS011;4769;42.660;23.262;2023-09-07T13:08:05;6.30;;;5.28;;
9461;SDS011;4769;42.660;23.262;2023-09-07T13:10:30;8.07;;;6.35;;
9461;SDS011;4769;42.660;23.262;2023-09-07T13:12:56;7.95;;;5.32;;
9461;SDS011;4769;42.660;23.262;2023-09-07T13:15:22;13.32;;;5.22;;
9461;SDS011;4769;42.660;23.262;2023-09-07T13:17:50;5.95;;;4.75;;
9461;SDS011;4769;42.660;23.262;2023-09-07T13:20:16;9.60;;;5.70;;
9461;SDS011;4769;42.660;23.262;2023-09-07T13:22:43;7.25;;;5.20;;
9461;SDS011;4769;42.660;23.262;2023-09-07T13:25:09;6.47;;;4.97;;
9461;SDS011;4769;42.660;23.262;2023-09-07T13:27:35;5.50;;;5.00;;
9461;SDS011;4769;42.660;23.262;2023-09-07T13:30:01;8.70;;;5.03;;
9461;SDS011;4769;42.660;23.262;2023-09-07T13:32:26;9.70;;;5.85;;
9461;SDS011;4769;42.660;23.262;2023-09-07T13:34:55;9.45;;;5.15;;
9461;SDS011;4769;42.660;23.262;2023-09-07T13:37:21;7.10;;;5.00;;
9461;SDS011;4769;42.660;23.262;2023-09-07T13:39:46;10.90;;;5.18;;
9461;SDS011;4769;42.660;23.262;2023-09-07T13:42:13;8.10;;;5.13;;
9461;SDS011;4769;42.660;23.262;2023-09-07T13:44:38;10.85;;;5.72;;
9461;SDS011;4769;42.660;23.262;2023-09-07T13:47:04;8.35;;;5.15;;
9461;SDS011;4769;42.660;23.262;2023-09-07T13:49:30;6.32;;;4.82;;
9461;SDS011;4769;42.660;23.262;2023-09-07T13:51:58;10.30;;;5.38;;
9461;SDS011;4769;42.660;23.262;2023-09-07T13:54:24;7.97;;;4.95;;
9461;SDS011;4769;42.660;23.262;2023-09-07T13:56:50;5.90;;;5.07;;
9461;SDS011;4769;42.660;23.262;2023-09-07T13:59:15;8.07;;;4.88;;
9461;SDS011;4769;42.660;23.262;2023-09-07T14:01:41;7.50;;;5.25;;
9461;SDS011;4769;42.660;23.262;2023-09-07T14:04:08;5.72;;;5.18;;
9461;SDS011;4769;42.660;23.262;2023-09-07T14:06:34;9.13;;;5.32;;
9461;SDS011;4769;42.660;23.262;2023-09-07T14:09:03;8.27;;;5.22;;
9461;SDS011;4769;42.660;23.262;2023-09-07T14:11:29;7.95;;;4.95;;
9461;SDS011;4769;42.660;23.262;2023-09-07T14:13:54;6.85;;;5.32;;
9461;SDS011;4769;42.660;23.262;2023-09-07T14:16:20;6.05;;;5.40;;
9461;SDS011;4769;42.660;23.262;2023-09-07T14:18:46;6.75;;;5.57;;
9461;SDS011;4769;42.660;23.262;2023-09-07T14:21:13;7.40;;;5.22;;
9461;SDS011;4769;42.660;23.262;2023-09-07T14:23:40;5.65;;;5.05;;
9461;SDS011;4769;42.660;23.262;2023-09-07T14:26:09;9.23;;;5.25;;
9461;SDS011;4769;42.660;23.262;2023-09-07T14:28:35;10.32;;;5.68;;
9461;SDS011;4769;42.660;23.262;2023-09-07T14:31:01;15.32;;;6.15;;
9461;SDS011;4769;42.660;23.262;2023-09-07T14:33:27;8.13;;;5.57;;
9461;SDS011;4769;42.660;23.262;2023-09-07T14:35:53;7.03;;;5.82;;
9461;SDS011;4769;42.660;23.262;2023-09-07T14:38:18;7.18;;;5.25;;
9461;SDS011;4769;42.660;23.262;2023-09-07T14:40:45;6.13;;;5.55;;
9461;SDS011;4769;42.660;23.262;2023-09-07T14:43:14;8.18;;;5.50;;